Time;durP1;ratioP1;P1;durP2;ratioP2;P2;SDS_P1;SDS_P2;PMS_P1;PMS_P2;Temp;Humidity;BMP_temperature;BMP_pressure;BME280_temperature;BME280_humidity;BME280_pressure;Samples;Min_cycle;Max_cycle;Signal;HPM_P1;HPM_P2
2024/02/20 00:00:50;;;;;;;5.22;3.45;;;;;;;;;;5014399;28;58457;-75
2024/02/20 00:03:15;;;;;;;5.77;4.07;;;;;;;;;;5016373;28;58673;-75
2024/02/20 00:05:40;;;;;;;9.60;4.78;;;;;;;;;;5013471;28;59625;-75
2024/02/20 00:08:05;;;;;;;7.60;4.25;;;;;;;;;;5011802;28;59216;-75
2024/02/20 00:10:31;;;;;;;5.47;4.00;;;;;;;;;;5017895;28;58680;-75
2024/02/20 00:12:57;;;;;;;6.03;4.03;;;;;;;;;;5027972;28;58609;-73
2024/02/20 00:15:22;;;;;;;6.63;4.50;;;;;;;;;;5026452;28;59614;-75
2024/02/20 00:17:47;;;;;;;6.20;3.83;;;;;;;;;;5024636;28;58608;-73
2024/02/20 00:20:13;;;;;;;7.33;3.00;;;;;;;;;;5021772;28;58385;-75
2024/02/20 00:22:38;;;;;;;8.10;3.90;;;;;;;;;;5016920;28;58566;-76
2024/02/20 00:25:03;;;;;;;6.43;3.57;;;;;;;;;;5014448;28;59023;-75
2024/02/20 00:27:30;;;;;;;6.47;4.22;;;;;;;;;;5027214;28;58372;-76
2024/02/20 00:29:55;;;;;;;8.23;4.57;;;;;;;;;;5021817;28;58820;-75
2024/02/20 00:32:21;;;;;;;5.37;3.63;;;;;;;;;;5024479;28;58381;-75
2024/02/20 00:34:47;;;;;;;5.15;3.95;;;;;;;;;;5020405;28;60071;-75
2024/02/20 00:37:12;;;;;;;5.45;3.83;;;;;;;;;;5015369;28;58854;-75
2024/02/20 00:39:37;;;;;;;6.27;4.13;;;;;;;;;;5018955;28;58480;-75
2024/02/20 00:42:03;;;;;;;6.20;4.00;;;;;;;;;;5019421;28;59282;-75
2024/02/20 00:44:28;;;;;;;9.60;5.40;;;;;;;;;;5017860;28;59167;-75
2024/02/20 00:46:53;;;;;;;8.15;4.47;;;;;;;;;;5019990;28;58565;-75
2024/02/20 00:49:18;;;;;;;6.60;4.10;;;;;;;;;;5026305;28;59586;-75
2024/02/20 00:51:44;;;;;;;4.37;2.80;;;;;;;;;;5029496;28;58693;-75
2024/02/20 00:54:09;;;;;;;5.75;3.53;;;;;;;;;;5016124;28;59323;-75
2024/02/20 00:56:35;;;;;;;7.50;4.27;;;;;;;;;;5018966;28;59445;-75
2024/02/20 00:59:02;;;;;;;5.95;2.95;;;;;;;;;;5015250;28;58475;-75
2024/02/20 01:01:27;;;;;;;7.27;4.07;;;;;;;;;;5017485;28;60393;-76
2024/02/20 01:03:52;;;;;;;6.77;3.27;;;;;;;;;;5013420;28;59179;-75
2024/02/20 01:06:18;;;;;;;6.73;3.03;;;;;;;;;;5015812;28;58513;-75
2024/02/20 01:08:43;;;;;;;7.67;4.17;;;;;;;;;;5009093;28;58368;-78
2024/02/20 01:11:08;;;;;;;5.45;3.85;;;;;;;;;;5015410;28;58562;-78
2024/02/20 01:13:33;;;;;;;3.55;2.95;;;;;;;;;;5026547;28;59276;-78
2024/02/20 01:15:59;;;;;;;7.28;3.50;;;;;;;;;;5027619;28;59062;-79
2024/02/20 01:18:24;;;;;;;18.80;4.13;;;;;;;;;;5014045;28;58454;-78
2024/02/20 01:20:49;;;;;;;7.03;3.90;;;;;;;;;;5025944;28;59460;-78
2024/02/20 01:23:14;;;;;;;5.70;3.80;;;;;;;;;;5025815;28;60157;-78
2024/02/20 01:25:41;;;;;;;4.40;3.43;;;;;;;;;;5028020;28;58456;-78
2024/02/20 01:28:06;;;;;;;5.03;3.40;;;;;;;;;;5026154;28;59595;-78
2024/02/20 01:30:32;;;;;;;5.20;2.93;;;;;;;;;;5007175;28;58972;-79
2024/02/20 01:32:58;;;;;;;5.45;3.47;;;;;;;;;;5009129;28;60239;-78
2024/02/20 01:35:23;;;;;;;6.03;3.65;;;;;;;;;;5019955;28;59162;-78
2024/02/20 01:37:48;;;;;;;6.10;3.58;;;;;;;;;;5025449;28;58231;-78
2024/02/20 01:40:14;;;;;;;7.23;3.77;;;;;;;;;;5022767;28;59380;-78
2024/02/20 01:42:39;;;;;;;4.17;3.27;;;;;;;;;;5027285;28;59830;-78
2024/02/20 01:45:04;;;;;;;7.03;4.20;;;;;;;;;;5019926;28;58452;-78
2024/02/20 01:47:30;;;;;;;6.88;3.65;;;;;;;;;;5022680;28;59274;-78
2024/02/20 01:49:57;;;;;;;5.60;3.22;;;;;;;;;;5018790;28;58908;-78
2024/02/20 01:52:22;;;;;;;3.28;2.75;;;;;;;;;;5006875;28;58514;-78
2024/02/20 01:54:47;;;;;;;3.53;2.70;;;;;;;;;;5007855;28;58283;-78
2024/02/20 01:57:12;;;;;;;4.13;2.93;;;;;;;;;;5017996;28;58539;-78
2024/02/20 01:59:37;;;;;;;6.60;3.63;;;;;;;;;;5021914;28;59240;-78
2024/02/20 02:02:03;;;;;;;5.43;2.67;;;;;;;;;;5027582;28;58339;-78
2024/02/20 02:04:28;;;;;;;5.50;3.57;;;;;;;;;;5026367;27;58602;-78
2024/02/20 02:06:53;;;;;;;5.95;3.72;;;;;;;;;;5027803;28;58595;-78
2024/02/20 02:09:18;;;;;;;5.97;3.53;;;;;;;;;;5014612;28;58330;-78
2024/02/20 02:11:43;;;;;;;5.82;3.50;;;;;;;;;;5014485;28;58752;-78
2024/02/20 02:14:09;;;;;;;6.10;3.70;;;;;;;;;;5022586;28;58531;-78
2024/02/20 02:16:35;;;;;;;6.05;3.35;;;;;;;;;;5021726;28;58442;-78
2024/02/20 02:19:00;;;;;;;5.07;3.33;;;;;;;;;;5015393;28;59537;-78
2024/02/20 02:21:25;;;;;;;4.77;3.17;;;;;;;;;;5028167;28;58785;-78
2024/02/20 02:23:50;;;;;;;7.07;4.17;;;;;;;;;;5019062;28;59053;-79
2024/02/20 02:26:16;;;;;;;5.93;3.55;;;;;;;;;;5021333;28;59280;-78
2024/02/20 02:28:47;;;;;;;8.57;3.30;;;;;;;;;;5021929;28;60231;-76
2024/02/20 02:31:12;;;;;;;7.43;3.53;;;;;;;;;;5016385;28;58403;-75
2024/02/20 02:33:37;;;;;;;4.63;3.03;;;;;;;;;;5016524;28;58216;-76
2024/02/20 02:36:02;;;;;;;5.67;3.83;;;;;;;;;;5016517;28;58531;-75
2024/02/20 02:38:28;;;;;;;4.78;3.13;;;;;;;;;;5023319;28;58894;-75
2024/02/20 02:40:53;;;;;;;5.67;3.23;;;;;;;;;;5025197;28;58563;-75
2024/02/20 02:43:18;;;;;;;5.60;3.47;;;;;;;;;;5026400;28;57985;-75
2024/02/20 02:45:43;;;;;;;5.15;2.92;;;;;;;;;;5028702;28;59235;-75
2024/02/20 02:48:08;;;;;;;6.37;3.77;;;;;;;;;;5007047;28;60609;-75
2024/02/20 02:50:34;;;;;;;6.40;3.38;;;;;;;;;;5007856;28;58616;-75
2024/02/20 02:52:59;;;;;;;5.25;3.13;;;;;;;;;;5016833;28;59543;-76
2024/02/20 02:55:25;;;;;;;4.88;2.58;;;;;;;;;;5022371;28;59623;-75
2024/02/20 02:57:50;;;;;;;4.10;2.67;;;;;;;;;;5027405;28;58393;-75
2024/02/20 03:00:15;;;;;;;5.57;3.73;;;;;;;;;;5024355;28;59184;-75
2024/02/20 03:02:41;;;;;;;6.93;3.53;;;;;;;;;;5027016;28;58373;-75
2024/02/20 03:05:07;;;;;;;5.90;3.10;;;;;;;;;;5021498;28;58961;-75
2024/02/20 03:07:33;;;;;;;3.75;2.90;;;;;;;;;;5018840;28;59128;-75
2024/02/20 03:09:58;;;;;;;5.03;2.95;;;;;;;;;;5028233;28;58400;-75
2024/02/20 03:12:23;;;;;;;3.75;2.60;;;;;;;;;;5015156;28;60286;-75
2024/02/20 03:14:51;;;;;;;3.78;3.10;;;;;;;;;;5016269;28;59733;-75
2024/02/20 03:17:16;;;;;;;5.65;2.28;;;;;;;;;;5016294;28;58439;-75
2024/02/20 03:19:41;;;;;;;5.70;3.67;;;;;;;;;;5016575;28;58796;-75
2024/02/20 03:22:10;;;;;;;6.88;3.67;;;;;;;;;;5023911;28;58527;-75
2024/02/20 03:24:36;;;;;;;5.53;2.53;;;;;;;;;;5016778;28;60391;-75
2024/02/20 03:27:01;;;;;;;4.70;3.00;;;;;;;;;;5003440;28;58544;-76
2024/02/20 03:29:27;;;;;;;3.77;3.10;;;;;;;;;;5005822;28;58612;-78
2024/02/20 03:31:52;;;;;;;3.97;2.40;;;;;;;;;;5009193;28;59100;-79
2024/02/20 03:34:17;;;;;;;4.83;3.33;;;;;;;;;;5015968;28;59793;-78
2024/02/20 03:36:44;;;;;;;3.00;2.70;;;;;;;;;;5017594;28;58676;-76
2024/02/20 03:39:09;;;;;;;4.53;3.38;;;;;;;;;;5014331;28;59601;-76
2024/02/20 03:41:34;;;;;;;6.43;2.80;;;;;;;;;;5020885;28;59278;-75
2024/02/20 03:43:59;;;;;;;4.55;2.55;;;;;;;;;;5021364;28;59436;-75
2024/02/20 03:46:24;;;;;;;5.45;2.70;;;;;;;;;;5018759;28;58844;-75
2024/02/20 03:48:49;;;;;;;6.10;3.30;;;;;;;;;;5025977;28;58422;-75
2024/02/20 03:51:15;;;;;;;3.57;2.53;;;;;;;;;;5025424;28;59444;-75
2024/02/20 03:53:40;;;;;;;7.07;3.87;;;;;;;;;;5025611;28;58963;-75
2024/02/20 03:56:10;;;;;;;4.20;3.03;;;;;;;;;;5017300;28;58417;-75
2024/02/20 03:58:35;;;;;;;3.67;2.22;;;;;;;;;;5011268;28;60724;-75
2024/02/20 04:01:00;;;;;;;4.28;2.63;;;;;;;;;;5022983;28;58849;-75
2024/02/20 04:03:25;;;;;;;5.17;4.00;;;;;;;;;;5027048;28;59171;-75
2024/02/20 04:05:50;;;;;;;6.50;3.53;;;;;;;;;;5024805;28;58497;-75
2024/02/20 04:08:15;;;;;;;3.92;2.70;;;;;;;;;;5014009;28;58411;-75
2024/02/20 04:10:41;;;;;;;4.20;3.30;;;;;;;;;;5006499;28;59548;-75
2024/02/20 04:13:06;;;;;;;5.95;2.22;;;;;;;;;;5015264;28;59820;-75
2024/02/20 04:15:32;;;;;;;3.33;2.60;;;;;;;;;;5029310;28;58506;-75
2024/02/20 04:17:57;;;;;;;4.03;2.70;;;;;;;;;;5029759;27;59545;-75
2024/02/20 04:20:22;;;;;;;3.70;2.90;;;;;;;;;;5024653;28;59668;-75
2024/02/20 04:22:47;;;;;;;4.10;2.77;;;;;;;;;;5017483;28;58676;-75
2024/02/20 04:25:12;;;;;;;6.07;3.03;;;;;;;;;;5015844;28;58740;-75
2024/02/20 04:27:38;;;;;;;3.30;2.43;;;;;;;;;;5031027;28;58646;-75
2024/02/20 04:30:04;;;;;;;4.18;2.53;;;;;;;;;;5016341;28;60647;-75
2024/02/20 04:32:29;;;;;;;4.13;2.35;;;;;;;;;;5018154;28;59026;-75
2024/02/20 04:34:54;;;;;;;2.70;2.07;;;;;;;;;;5017914;28;58646;-75
2024/02/20 04:37:21;;;;;;;4.17;2.70;;;;;;;;;;5020321;28;59389;-75
2024/02/20 04:39:46;;;;;;;4.35;2.88;;;;;;;;;;5026944;28;59016;-76
2024/02/20 04:42:11;;;;;;;3.38;2.22;;;;;;;;;;5007694;28;58399;-75
2024/02/20 04:44:39;;;;;;;3.73;2.83;;;;;;;;;;5020354;28;58565;-75
2024/02/20 04:47:04;;;;;;;;;;;;;;;;;;5025349;28;58569;-75
2024/02/20 04:49:30;;;;;;;4.28;3.03;;;;;;;;;;5020959;28;59469;-75
2024/02/20 04:51:55;;;;;;;3.63;2.50;;;;;;;;;;5030899;28;58619;-75
2024/02/20 04:54:20;;;;;;;3.75;2.75;;;;;;;;;;5028336;28;58446;-75
2024/02/20 04:56:45;;;;;;;4.78;2.65;;;;;;;;;;5027640;28;59140;-75
2024/02/20 04:59:10;;;;;;;4.40;2.10;;;;;;;;;;5022751;28;58508;-76
2024/02/20 05:01:35;;;;;;;5.80;2.45;;;;;;;;;;5020490;28;58422;-75
2024/02/20 05:04:01;;;;;;;3.07;2.30;;;;;;;;;;5027181;28;60240;-75
2024/02/20 05:06:26;;;;;;;4.43;2.80;;;;;;;;;;5020907;28;58454;-76
2024/02/20 05:08:51;;;;;;;4.27;2.37;;;;;;;;;;5009062;28;60416;-75
2024/02/20 05:11:16;;;;;;;4.43;2.28;;;;;;;;;;5013228;28;58606;-75
2024/02/20 05:13:41;;;;;;;4.82;3.00;;;;;;;;;;5017113;28;58449;-75
2024/02/20 05:16:06;;;;;;;3.63;2.43;;;;;;;;;;5018287;28;59584;-75
2024/02/20 05:18:32;;;;;;;3.90;2.40;;;;;;;;;;5016157;28;58453;-75
2024/02/20 05:20:57;;;;;;;3.70;2.30;;;;;;;;;;5018214;28;58442;-75
2024/02/20 05:23:22;;;;;;;4.53;2.60;;;;;;;;;;5016157;28;58656;-75
2024/02/20 05:25:47;;;;;;;3.17;2.37;;;;;;;;;;5021268;28;58613;-75
2024/02/20 05:28:13;;;;;;;2.60;2.28;;;;;;;;;;5028279;28;59667;-75
2024/02/20 05:30:38;;;;;;;5.25;2.65;;;;;;;;;;5008865;28;59624;-75
2024/02/20 05:33:04;;;;;;;2.53;1.90;;;;;;;;;;5025140;28;58433;-76
2024/02/20 05:35:29;;;;;;;3.30;2.47;;;;;;;;;;5020796;28;59456;-75
2024/02/20 05:37:55;;;;;;;5.55;2.40;;;;;;;;;;5014961;28;58621;-75
2024/02/20 05:40:20;;;;;;;4.60;2.60;;;;;;;;;;5016406;28;58125;-75
2024/02/20 05:42:45;;;;;;;5.67;2.40;;;;;;;;;;5027588;28;58351;-76
2024/02/20 05:45:10;;;;;;;4.32;2.42;;;;;;;;;;5015763;28;58484;-75
2024/02/20 05:47:36;;;;;;;6.18;1.88;;;;;;;;;;5025438;28;58384;-75
2024/02/20 05:50:01;;;;;;;3.03;2.50;;;;;;;;;;5017408;28;58364;-81
2024/02/20 05:52:26;;;;;;;3.40;2.20;;;;;;;;;;5011065;28;58493;-78
2024/02/20 05:54:51;;;;;;;4.07;2.47;;;;;;;;;;5027682;28;60181;-78
2024/02/20 05:57:16;;;;;;;3.33;2.08;;;;;;;;;;5027019;28;58320;-78
2024/02/20 05:59:41;;;;;;;3.17;2.28;;;;;;;;;;5017501;28;58394;-76
2024/02/20 06:02:07;;;;;;;5.07;2.53;;;;;;;;;;5019151;28;60140;-76
2024/02/20 06:04:32;;;;;;;8.10;2.53;;;;;;;;;;5025297;28;58471;-76
2024/02/20 06:06:57;;;;;;;11.75;2.80;;;;;;;;;;5027784;28;58311;-76
2024/02/20 06:09:22;;;;;;;9.10;3.40;;;;;;;;;;5026660;28;58465;-76
2024/02/20 06:11:47;;;;;;;11.77;3.22;;;;;;;;;;5020639;28;58515;-76
2024/02/20 06:14:13;;;;;;;9.80;3.20;;;;;;;;;;5021775;28;59038;-76
2024/02/20 06:16:38;;;;;;;15.32;4.32;;;;;;;;;;5023116;28;58855;-76
2024/02/20 06:19:03;;;;;;;7.53;3.35;;;;;;;;;;5015600;28;58322;-76
2024/02/20 06:21:28;;;;;;;7.87;3.47;;;;;;;;;;5017105;28;58576;-76
2024/02/20 06:23:54;;;;;;;7.65;3.47;;;;;;;;;;5017014;28;58575;-76
2024/02/20 06:26:19;;;;;;;8.05;4.65;;;;;;;;;;5012561;28;58511;-76
2024/02/20 06:28:45;;;;;;;9.97;4.57;;;;;;;;;;5016129;28;59760;-76
2024/02/20 06:31:10;;;;;;;9.80;4.03;;;;;;;;;;5027549;28;59258;-76
2024/02/20 06:33:35;;;;;;;11.23;4.95;;;;;;;;;;5026894;28;59180;-76
2024/02/20 06:36:00;;;;;;;14.13;5.20;;;;;;;;;;5026903;28;59179;-76
2024/02/20 06:38:31;;;;;;;13.47;5.30;;;;;;;;;;5026096;28;60510;-76
2024/02/20 06:40:57;;;;;;;12.30;5.35;;;;;;;;;;5025328;27;59371;-76
2024/02/20 06:43:22;;;;;;;12.73;4.73;;;;;;;;;;5024744;28;58969;-76
2024/02/20 06:45:47;;;;;;;7.90;3.83;;;;;;;;;;5027054;28;58481;-76
2024/02/20 06:48:12;;;;;;;10.18;4.80;;;;;;;;;;5024686;28;59104;-76
2024/02/20 06:50:37;;;;;;;14.00;5.77;;;;;;;;;;5018696;28;58544;-76
2024/02/20 06:53:02;;;;;;;8.13;4.80;;;;;;;;;;5016173;28;58426;-76
2024/02/20 06:55:28;;;;;;;10.77;5.07;;;;;;;;;;5016986;28;58661;-76
2024/02/20 06:57:54;;;;;;;12.23;6.50;;;;;;;;;;5026513;28;58451;-76
2024/02/20 07:00:19;;;;;;;14.02;5.50;;;;;;;;;;5016831;28;59181;-78
2024/02/20 07:02:44;;;;;;;16.25;4.55;;;;;;;;;;5022023;28;58944;-77
2024/02/20 07:05:10;;;;;;;10.43;5.13;;;;;;;;;;5021753;28;58429;-78
2024/02/20 07:07:35;;;;;;;11.80;4.32;;;;;;;;;;5012150;28;58472;-77
2024/02/20 07:10:00;;;;;;;11.63;5.13;;;;;;;;;;5004596;28;58588;-78
2024/02/20 07:12:26;;;;;;;11.07;5.03;;;;;;;;;;5026349;28;58351;-78
2024/02/20 07:14:51;;;;;;;10.27;3.97;;;;;;;;;;5017943;28;58788;-76
2024/02/20 07:17:16;;;;;;;10.57;4.37;;;;;;;;;;5015977;28;58446;-77
2024/02/20 07:19:42;;;;;;;13.02;6.03;;;;;;;;;;5019772;28;58544;-78
2024/02/20 07:22:07;;;;;;;8.13;4.20;;;;;;;;;;5024998;28;58446;-78
2024/02/20 07:24:32;;;;;;;15.03;4.97;;;;;;;;;;5025458;28;58372;-77
2024/02/20 07:26:57;;;;;;;9.70;4.97;;;;;;;;;;5015783;28;59152;-78
2024/02/20 07:29:22;;;;;;;11.02;4.88;;;;;;;;;;5018469;28;59670;-78
2024/02/20 07:31:47;;;;;;;8.77;4.17;;;;;;;;;;5024789;28;58412;-77
2024/02/20 07:34:12;;;;;;;9.10;4.70;;;;;;;;;;5023544;28;60318;-78
2024/02/20 07:36:38;;;;;;;12.67;5.47;;;;;;;;;;5014292;28;58328;-77
2024/02/20 07:39:04;;;;;;;12.10;4.95;;;;;;;;;;5015307;28;60182;-78
2024/02/20 07:41:29;;;;;;;7.82;4.35;;;;;;;;;;5010019;28;59622;-77
2024/02/20 07:43:54;;;;;;;12.30;4.23;;;;;;;;;;5020192;28;58455;-78
2024/02/20 07:46:19;;;;;;;13.23;5.30;;;;;;;;;;5024872;28;59822;-78
2024/02/20 07:48:46;;;;;;;14.68;4.70;;;;;;;;;;5026579;28;58398;-78
2024/02/20 07:51:11;;;;;;;10.05;4.20;;;;;;;;;;5008077;28;58376;-78
2024/02/20 07:53:36;;;;;;;11.03;4.10;;;;;;;;;;5021470;28;60183;-78
2024/02/20 07:56:05;;;;;;;12.73;4.07;;;;;;;;;;5020561;28;60642;-77
2024/02/20 07:58:31;;;;;;;10.60;4.15;;;;;;;;;;5016630;28;59762;-78
2024/02/20 08:00:56;;;;;;;10.02;4.10;;;;;;;;;;5015706;28;59004;-78
2024/02/20 08:03:23;;;;;;;10.73;4.33;;;;;;;;;;5019977;28;59294;-78
2024/02/20 08:05:49;;;;;;;13.40;3.97;;;;;;;;;;5014350;28;59911;-78
2024/02/20 08:08:14;;;;;;;11.40;4.70;;;;;;;;;;5011145;28;58761;-78
2024/02/20 08:10:39;;;;;;;10.10;3.67;;;;;;;;;;5008902;28;58270;-78
2024/02/20 08:13:04;;;;;;;9.73;4.30;;;;;;;;;;5010565;28;59154;-77
2024/02/20 08:15:29;;;;;;;9.03;4.10;;;;;;;;;;5025895;28;58968;-78
2024/02/20 08:17:54;;;;;;;7.93;3.50;;;;;;;;;;5025014;28;58524;-77
2024/02/20 08:20:19;;;;;;;12.60;6.10;;;;;;;;;;5016768;28;58505;-78
2024/02/20 08:22:45;;;;;;;10.57;5.10;;;;;;;;;;5016909;28;58398;-78
2024/02/20 08:25:10;;;;;;;12.20;4.20;;;;;;;;;;5024148;28;59457;-78
2024/02/20 08:27:35;;;;;;;16.67;5.57;;;;;;;;;;5023346;28;58926;-78
2024/02/20 08:30:00;;;;;;;9.13;4.47;;;;;;;;;;5025751;28;58485;-78
2024/02/20 08:32:25;;;;;;;11.17;4.30;;;;;;;;;;5019183;28;58673;-78
2024/02/20 08:34:51;;;;;;;12.53;5.03;;;;;;;;;;5008057;28;58967;-78
2024/02/20 08:37:16;;;;;;;14.55;6.10;;;;;;;;;;5013233;28;58391;-78
2024/02/20 08:39:43;;;;;;;17.07;5.10;;;;;;;;;;5017038;28;58504;-78
2024/02/20 08:42:08;;;;;;;14.45;4.65;;;;;;;;;;5001947;28;58521;-78
2024/02/20 08:44:33;;;;;;;12.57;4.75;;;;;;;;;;5018983;28;58743;-78
2024/02/20 08:46:59;;;;;;;13.40;5.87;;;;;;;;;;5024380;28;59148;-78
2024/02/20 08:49:24;;;;;;;14.20;6.80;;;;;;;;;;5026218;27;58379;-78
2024/02/20 08:51:49;;;;;;;10.88;4.30;;;;;;;;;;5025754;28;58424;-78
2024/02/20 08:54:14;;;;;;;22.48;6.28;;;;;;;;;;5004059;28;58800;-78
2024/02/20 08:56:39;;;;;;;14.90;5.73;;;;;;;;;;5006450;28;58422;-78
2024/02/20 08:59:04;;;;;;;16.07;5.73;;;;;;;;;;5011818;28;59314;-78
2024/02/20 09:01:30;;;;;;;9.98;5.13;;;;;;;;;;5019909;28;58691;-78
2024/02/20 09:03:55;;;;;;;16.00;6.03;;;;;;;;;;5030582;28;58837;-78
2024/02/20 09:06:20;;;;;;;13.87;6.37;;;;;;;;;;5028823;28;58874;-78
2024/02/20 09:08:45;;;;;;;14.00;6.47;;;;;;;;;;5028031;28;58559;-78
2024/02/20 09:11:11;;;;;;;10.40;5.00;;;;;;;;;;5022938;28;59946;-78
2024/02/20 09:13:36;;;;;;;16.03;6.17;;;;;;;;;;5019445;28;59293;-78
2024/02/20 09:16:01;;;;;;;13.80;6.50;;;;;;;;;;5017864;28;58447;-78
2024/02/20 09:18:28;;;;;;;19.42;6.35;;;;;;;;;;5026181;28;59229;-78
2024/02/20 09:20:54;;;;;;;15.77;6.00;;;;;;;;;;5029592;28;58608;-78
2024/02/20 09:23:19;;;;;;;16.53;6.90;;;;;;;;;;5028879;28;60441;-78
2024/02/20 09:25:44;;;;;;;12.13;6.20;;;;;;;;;;5023055;28;58532;-78
2024/02/20 09:28:09;;;;;;;12.13;5.23;;;;;;;;;;5017600;28;58465;-78
2024/02/20 09:30:35;;;;;;;10.07;5.10;;;;;;;;;;5029266;28;58678;-76
2024/02/20 09:33:00;;;;;;;10.75;6.15;;;;;;;;;;5017007;28;58371;-76
2024/02/20 09:35:25;;;;;;;14.02;5.95;;;;;;;;;;5023719;28;58651;-76
2024/02/20 09:37:50;;;;;;;12.40;6.20;;;;;;;;;;5028260;28;58450;-76
2024/02/20 09:40:18;;;;;;;16.02;6.68;;;;;;;;;;5026105;28;58637;-76
2024/02/20 09:42:45;;;;;;;15.13;6.32;;;;;;;;;;5028298;28;58372;-76
2024/02/20 09:45:15;;;;;;;12.10;4.68;;;;;;;;;;5015110;28;59119;-76
2024/02/20 09:47:40;;;;;;;12.60;5.05;;;;;;;;;;5015763;28;58245;-76
2024/02/20 09:50:05;;;;;;;11.85;4.97;;;;;;;;;;5018781;28;59367;-75
2024/02/20 09:52:32;;;;;;;11.93;5.65;;;;;;;;;;5019544;28;58625;-75
2024/02/20 09:54:57;;;;;;;12.32;5.57;;;;;;;;;;5029557;28;58621;-75
2024/02/20 09:57:23;;;;;;;11.03;5.00;;;;;;;;;;5027254;28;58625;-75
2024/02/20 09:59:48;;;;;;;13.05;4.95;;;;;;;;;;5028780;28;58418;-76
2024/02/20 10:02:18;;;;;;;17.13;5.88;;;;;;;;;;5028217;28;58403;-76
2024/02/20 10:04:45;;;;;;;13.38;5.65;;;;;;;;;;5021970;28;58473;-75
2024/02/20 10:07:10;;;;;;;15.00;5.88;;;;;;;;;;5009536;28;58441;-75
2024/02/20 10:09:36;;;;;;;16.60;6.17;;;;;;;;;;5026616;28;59456;-75
2024/02/20 10:12:01;;;;;;;11.37;4.87;;;;;;;;;;5027412;28;58673;-75
2024/02/20 10:14:27;;;;;;;12.43;5.53;;;;;;;;;;5027164;28;58749;-76
2024/02/20 10:16:59;;;;;;;15.13;6.68;;;;;;;;;;5027886;28;59157;-75
2024/02/20 10:19:24;;;;;;;14.48;5.47;;;;;;;;;;5022912;28;60851;-76
2024/02/20 10:21:50;;;;;;;10.90;5.10;;;;;;;;;;5008873;28;58427;-75
2024/02/20 10:24:15;;;;;;;11.55;5.03;;;;;;;;;;5015810;28;59299;-75
2024/02/20 10:26:44;;;;;;;11.27;4.67;;;;;;;;;;5020682;28;58703;-75
2024/02/20 10:29:09;;;;;;;11.82;5.95;;;;;;;;;;5024588;28;59217;-76
2024/02/20 10:31:34;;;;;;;11.43;5.07;;;;;;;;;;5023481;28;58531;-77
2024/02/20 10:34:00;;;;;;;15.83;6.20;;;;;;;;;;5013838;28;58376;-77
2024/02/20 10:36:26;;;;;;;10.33;4.83;;;;;;;;;;5015404;28;59207;-77
2024/02/20 10:38:51;;;;;;;15.13;4.68;;;;;;;;;;5021144;28;59872;-77
2024/02/20 10:41:18;;;;;;;10.30;4.97;;;;;;;;;;5016541;28;58549;-78
2024/02/20 10:43:45;;;;;;;12.20;5.63;;;;;;;;;;5009197;28;58907;-78
2024/02/20 10:46:12;;;;;;;10.80;4.53;;;;;;;;;;5013639;28;58856;-77
2024/02/20 10:48:38;;;;;;;10.45;4.78;;;;;;;;;;5014766;28;58404;-77
2024/02/20 10:51:04;;;;;;;10.40;5.57;;;;;;;;;;5021623;28;59091;-78
2024/02/20 10:53:29;;;;;;;12.98;5.72;;;;;;;;;;5026419;28;58573;-77
2024/02/20 10:55:56;;;;;;;8.73;5.30;;;;;;;;;;5023967;28;59453;-78
2024/02/20 10:58:21;;;;;;;15.45;6.90;;;;;;;;;;5022718;28;59234;-78
2024/02/20 11:00:47;;;;;;;14.87;6.83;;;;;;;;;;5014813;28;58405;-78
2024/02/20 11:03:13;;;;;;;13.15;4.63;;;;;;;;;;5017539;28;59608;-78
2024/02/20 11:05:38;;;;;;;13.82;6.05;;;;;;;;;;5022455;28;59251;-78
2024/02/20 11:08:04;;;;;;;10.67;4.90;;;;;;;;;;5028192;27;58109;-78
2024/02/20 11:10:29;;;;;;;12.30;5.15;;;;;;;;;;5025792;27;59940;-78
2024/02/20 11:12:55;;;;;;;9.48;4.00;;;;;;;;;;5026361;28;58380;-77
2024/02/20 11:15:26;;;;;;;13.27;5.82;;;;;;;;;;5027303;28;59569;-78
2024/02/20 11:17:51;;;;;;;10.20;5.63;;;;;;;;;;5017363;28;58955;-78
2024/02/20 11:20:16;;;;;;;10.23;4.55;;;;;;;;;;5013162;28;58366;-77
2024/02/20 11:22:42;;;;;;;12.97;5.50;;;;;;;;;;5016316;28;59452;-78
2024/02/20 11:25:08;;;;;;;11.88;4.07;;;;;;;;;;5025233;28;59085;-77
2024/02/20 11:27:40;;;;;;;11.25;5.70;;;;;;;;;;5014788;28;58440;-78
2024/02/20 11:30:06;;;;;;;13.27;6.10;;;;;;;;;;5010496;28;59138;-77
2024/02/20 11:32:32;;;;;;;9.93;4.70;;;;;;;;;;5023936;28;58432;-77
2024/02/20 11:34:57;;;;;;;17.98;6.25;;;;;;;;;;5022151;28;58789;-77
2024/02/20 11:37:22;;;;;;;12.05;5.00;;;;;;;;;;5015323;28;58980;-78
2024/02/20 11:39:47;;;;;;;13.80;5.55;;;;;;;;;;5016457;28;58318;-75
2024/02/20 11:42:12;;;;;;;15.67;6.33;;;;;;;;;;5023693;28;59304;-76
2024/02/20 11:44:38;;;;;;;14.35;6.63;;;;;;;;;;5015107;28;58623;-76
2024/02/20 11:47:04;;;;;;;10.63;5.45;;;;;;;;;;5019048;28;58249;-75
2024/02/20 11:49:32;;;;;;;12.52;5.60;;;;;;;;;;5021102;28;59578;-78
2024/02/20 11:52:04;;;;;;;11.63;4.95;;;;;;;;;;5012908;28;58997;-77
2024/02/20 11:54:30;;;;;;;11.13;4.75;;;;;;;;;;5025021;28;59510;-78
2024/02/20 11:56:55;;;;;;;12.07;5.53;;;;;;;;;;5025186;28;58430;-77
2024/02/20 11:59:20;;;;;;;11.77;5.13;;;;;;;;;;5016729;28;58357;-78
2024/02/20 12:01:45;;;;;;;9.83;4.63;;;;;;;;;;5011805;28;59399;-77
2024/02/20 12:04:12;;;;;;;9.50;5.38;;;;;;;;;;5015518;28;59746;-78
2024/02/20 12:06:39;;;;;;;12.68;6.45;;;;;;;;;;5026931;28;58364;-78
2024/02/20 12:09:14;;;;;;;12.68;6.50;;;;;;;;;;5025373;28;59485;-76
2024/02/20 12:11:49;;;;;;;15.32;6.18;;;;;;;;;;5024999;28;59599;-76
2024/02/20 12:14:15;;;;;;;12.90;5.60;;;;;;;;;;5023712;28;58373;-77
2024/02/20 12:16:40;;;;;;;8.13;4.82;;;;;;;;;;5023193;28;59115;-77
2024/02/20 12:19:05;;;;;;;10.40;4.43;;;;;;;;;;5025305;28;58683;-77
2024/02/20 12:21:32;;;;;;;9.75;4.70;;;;;;;;;;5014719;28;59695;-78
2024/02/20 12:23:57;;;;;;;7.55;4.22;;;;;;;;;;5020927;28;58959;-77
2024/02/20 12:26:23;;;;;;;10.90;4.95;;;;;;;;;;5017757;28;58449;-77
2024/02/20 12:28:49;;;;;;;11.85;5.57;;;;;;;;;;5014138;28;58654;-77
2024/02/20 12:31:21;;;;;;;11.35;4.47;;;;;;;;;;5013229;28;60419;-77
2024/02/20 12:33:46;;;;;;;10.43;4.68;;;;;;;;;;5027862;28;58336;-78
2024/02/20 12:36:11;;;;;;;8.70;4.63;;;;;;;;;;5017387;28;58896;-77
2024/02/20 12:38:37;;;;;;;9.60;4.75;;;;;;;;;;5011354;28;58441;-77
2024/02/20 12:41:02;;;;;;;9.02;4.72;;;;;;;;;;5018668;28;58626;-77
2024/02/20 12:43:27;;;;;;;12.03;5.50;;;;;;;;;;5024273;28;59080;-77
2024/02/20 12:45:53;;;;;;;8.88;4.97;;;;;;;;;;5019845;28;58379;-78
2024/02/20 12:48:19;;;;;;;10.95;5.25;;;;;;;;;;5028141;28;60372;-77
2024/02/20 12:50:44;;;;;;;12.23;5.28;;;;;;;;;;5028684;28;58778;-77
2024/02/20 12:53:09;;;;;;;8.88;4.75;;;;;;;;;;5022249;28;58388;-77
2024/02/20 12:55:35;;;;;;;10.57;4.63;;;;;;;;;;5014263;28;59516;-77
2024/02/20 12:58:07;;;;;;;9.35;5.32;;;;;;;;;;5020287;28;58842;-78
2024/02/20 13:00:33;;;;;;;13.77;5.47;;;;;;;;;;5028600;28;59342;-75
2024/02/20 13:02:58;;;;;;;7.82;4.18;;;;;;;;;;5027977;28;58727;-75
2024/02/20 13:05:24;;;;;;;9.65;4.57;;;;;;;;;;5021769;28;58361;-75
2024/02/20 13:07:50;;;;;;;9.50;5.00;;;;;;;;;;5016445;28;59303;-75
2024/02/20 13:10:15;;;;;;;11.55;4.90;;;;;;;;;;5017092;28;58948;-75
2024/02/20 13:12:41;;;;;;;10.05;4.03;;;;;;;;;;5029545;28;58477;-75
2024/02/20 13:15:07;;;;;;;10.77;5.10;;;;;;;;;;5027446;28;60421;-75
2024/02/20 13:17:32;;;;;;;10.10;4.43;;;;;;;;;;5026780;28;60064;-75
2024/02/20 13:19:57;;;;;;;10.17;4.77;;;;;;;;;;5026931;28;58476;-74
2024/02/20 13:22:22;;;;;;;8.38;4.22;;;;;;;;;;5023489;28;58833;-75
2024/02/20 13:24:48;;;;;;;13.18;5.97;;;;;;;;;;5015996;28;58854;-75
2024/02/20 13:27:14;;;;;;;9.83;4.67;;;;;;;;;;5013875;28;59448;-75
2024/02/20 13:29:39;;;;;;;7.82;4.65;;;;;;;;;;5023011;28;58497;-75
2024/02/20 13:32:04;;;;;;;10.18;5.68;;;;;;;;;;5027866;28;58571;-76
2024/02/20 13:34:29;;;;;;;14.73;4.40;;;;;;;;;;5023894;28;61246;-75
2024/02/20 13:36:55;;;;;;;9.93;4.90;;;;;;;;;;5016905;28;58757;-75
2024/02/20 13:39:20;;;;;;;11.10;4.73;;;;;;;;;;5018952;28;58522;-75
2024/02/20 13:41:45;;;;;;;13.40;4.33;;;;;;;;;;5013127;28;58685;-75
2024/02/20 13:44:11;;;;;;;10.80;5.47;;;;;;;;;;5023723;28;58230;-75
2024/02/20 13:46:36;;;;;;;9.73;4.75;;;;;;;;;;5025853;28;59888;-75
2024/02/20 13:49:02;;;;;;;10.67;5.13;;;;;;;;;;5023523;28;58972;-75
2024/02/20 13:51:27;;;;;;;10.70;5.27;;;;;;;;;;5004696;28;58376;-75
2024/02/20 13:53:53;;;;;;;10.43;5.07;;;;;;;;;;5012510;28;59520;-75
2024/02/20 13:56:19;;;;;;;8.68;4.35;;;;;;;;;;5013517;28;60251;-75
2024/02/20 13:58:46;;;;;;;8.70;4.93;;;;;;;;;;5018753;28;58441;-75
2024/02/20 14:01:12;;;;;;;11.60;5.20;;;;;;;;;;5014269;28;59429;-75
2024/02/20 14:03:37;;;;;;;10.77;5.13;;;;;;;;;;5028369;28;58386;-75
2024/02/20 14:06:03;;;;;;;9.17;3.67;;;;;;;;;;5028736;28;59255;-75
2024/02/20 14:08:28;;;;;;;7.63;4.53;;;;;;;;;;5018986;28;59011;-75
2024/02/20 14:10:53;;;;;;;10.07;4.63;;;;;;;;;;5019258;28;58395;-77
2024/02/20 14:13:18;;;;;;;8.37;4.90;;;;;;;;;;5024296;28;59369;-77
2024/02/20 14:15:44;;;;;;;8.63;4.07;;;;;;;;;;5015692;28;59247;-77
2024/02/20 14:18:09;;;;;;;9.13;4.53;;;;;;;;;;5023025;28;58416;-77
2024/02/20 14:20:34;;;;;;;8.73;4.50;;;;;;;;;;5018792;28;58539;-77
2024/02/20 14:23:01;;;;;;;12.20;4.97;;;;;;;;;;5021140;28;60762;-78
2024/02/20 14:25:26;;;;;;;7.32;4.43;;;;;;;;;;5025067;28;58795;-77
2024/02/20 14:27:52;;;;;;;10.00;4.93;;;;;;;;;;5027830;28;58808;-77